Terminal Aerodrome Forecast
Issued by NWS North Platte, NE

Home | Current Version | Previous Version | Graphics & Text | Print | Product List | Glossary On
Versions: 1 2 3 4 5 6 7 8 9 10 11 12 13 14
450
FTUS43 KLBF 062339
TAFVTN
TAF
KVTN 062339Z 0700/0724 28013KT P6SM BKN250
     FM071000 29015G21KT P6SM SCT250
     FM071500 30027G35KT P6SM SCT080
     FM071800 30034G43KT P6SM BKN070=

USA.gov is the U.S. government's official web portal to all federal, state and local government web resources and services.